sensor_id;sensor_type;location;lat;lon;timestamp;P1;durP1;ratioP1;P2;durP2;ratioP2
29570;SDS011;16814;52.118;11.436;2023-01-05T00:01:32;11.65;;;2.13;;
29570;SDS011;16814;52.118;11.436;2023-01-05T00:03:58;20.77;;;2.72;;
29570;SDS011;16814;52.118;11.436;2023-01-05T00:06:24;14.70;;;2.53;;
29570;SDS011;16814;52.118;11.436;2023-01-05T00:08:49;10.57;;;2.33;;
29570;SDS011;16814;52.118;11.436;2023-01-05T00:11:16;14.37;;;2.53;;
29570;SDS011;16814;52.118;11.436;2023-01-05T00:14:05;18.50;;;2.93;;
29570;SDS011;16814;52.118;11.436;2023-01-05T00:16:50;10.88;;;2.28;;
29570;SDS011;16814;52.118;11.436;2023-01-05T00:19:34;11.00;;;2.80;;
29570;SDS011;16814;52.118;11.436;2023-01-05T00:22:20;15.77;;;2.50;;
29570;SDS011;16814;52.118;11.436;2023-01-05T00:24:59;12.27;;;2.60;;
29570;SDS011;16814;52.118;11.436;2023-01-05T00:27:25;15.55;;;2.85;;
29570;SDS011;16814;52.118;11.436;2023-01-05T00:29:51;14.27;;;2.75;;
29570;SDS011;16814;52.118;11.436;2023-01-05T00:32:16;18.60;;;3.60;;
29570;SDS011;16814;52.118;11.436;2023-01-05T00:34:42;11.55;;;2.47;;
29570;SDS011;16814;52.118;11.436;2023-01-05T00:37:08;11.63;;;2.70;;
29570;SDS011;16814;52.118;11.436;2023-01-05T00:39:33;10.40;;;2.40;;
29570;SDS011;16814;52.118;11.436;2023-01-05T00:41:59;15.13;;;2.77;;
29570;SDS011;16814;52.118;11.436;2023-01-05T00:44:24;12.60;;;2.33;;
29570;SDS011;16814;52.118;11.436;2023-01-05T00:46:50;12.82;;;2.10;;
29570;SDS011;16814;52.118;11.436;2023-01-05T00:49:16;13.80;;;2.65;;
29570;SDS011;16814;52.118;11.436;2023-01-05T00:51:42;9.50;;;2.33;;
29570;SDS011;16814;52.118;11.436;2023-01-05T00:54:07;13.68;;;2.40;;
29570;SDS011;16814;52.118;11.436;2023-01-05T00:56:33;12.00;;;2.40;;
29570;SDS011;16814;52.118;11.436;2023-01-05T00:58:58;10.07;;;2.00;;
29570;SDS011;16814;52.118;11.436;2023-01-05T01:01:24;14.25;;;2.30;;
29570;SDS011;16814;52.118;11.436;2023-01-05T01:03:49;12.43;;;2.80;;
29570;SDS011;16814;52.118;11.436;2023-01-05T01:06:15;14.67;;;2.77;;
29570;SDS011;16814;52.118;11.436;2023-01-05T01:08:41;14.27;;;2.67;;
29570;SDS011;16814;52.118;11.436;2023-01-05T01:11:07;21.38;;;2.85;;
29570;SDS011;16814;52.118;11.436;2023-01-05T01:13:35;16.48;;;2.42;;
29570;SDS011;16814;52.118;11.436;2023-01-05T01:16:06;17.95;;;2.72;;
29570;SDS011;16814;52.118;11.436;2023-01-05T01:18:33;13.15;;;2.53;;
29570;SDS011;16814;52.118;11.436;2023-01-05T01:20:59;13.23;;;2.58;;
29570;SDS011;16814;52.118;11.436;2023-01-05T01:23:25;15.80;;;2.45;;
29570;SDS011;16814;52.118;11.436;2023-01-05T01:25:51;13.53;;;3.17;;
29570;SDS011;16814;52.118;11.436;2023-01-05T01:28:16;11.18;;;2.30;;
29570;SDS011;16814;52.118;11.436;2023-01-05T01:30:42;13.67;;;2.43;;
29570;SDS011;16814;52.118;11.436;2023-01-05T01:33:08;15.23;;;3.35;;
29570;SDS011;16814;52.118;11.436;2023-01-05T01:35:36;13.97;;;2.37;;
29570;SDS011;16814;52.118;11.436;2023-01-05T01:38:02;13.40;;;2.85;;
29570;SDS011;16814;52.118;11.436;2023-01-05T01:40:27;17.08;;;2.78;;
29570;SDS011;16814;52.118;11.436;2023-01-05T01:42:53;15.87;;;3.57;;
29570;SDS011;16814;52.118;11.436;2023-01-05T01:45:23;14.27;;;3.10;;
29570;SDS011;16814;52.118;11.436;2023-01-05T01:47:59;19.85;;;3.28;;
29570;SDS011;16814;52.118;11.436;2023-01-05T01:50:47;18.05;;;3.15;;
29570;SDS011;16814;52.118;11.436;2023-01-05T01:53:33;17.65;;;3.45;;
29570;SDS011;16814;52.118;11.436;2023-01-05T01:56:02;18.02;;;3.05;;
29570;SDS011;16814;52.118;11.436;2023-01-05T01:58:31;15.73;;;3.17;;
29570;SDS011;16814;52.118;11.436;2023-01-05T02:00:57;15.48;;;2.92;;
29570;SDS011;16814;52.118;11.436;2023-01-05T02:03:27;17.50;;;3.08;;
29570;SDS011;16814;52.118;11.436;2023-01-05T02:05:53;12.93;;;2.70;;
29570;SDS011;16814;52.118;11.436;2023-01-05T02:08:20;18.40;;;2.90;;
29570;SDS011;16814;52.118;11.436;2023-01-05T02:28:06;21.08;;;3.30;;
29570;SDS011;16814;52.118;11.436;2023-01-05T02:30:47;19.70;;;3.33;;
29570;SDS011;16814;52.118;11.436;2023-01-05T02:33:26;20.10;;;3.78;;
29570;SDS011;16814;52.118;11.436;2023-01-05T02:36:04;18.33;;;3.20;;
29570;SDS011;16814;52.118;11.436;2023-01-05T02:38:52;18.13;;;3.33;;
29570;SDS011;16814;52.118;11.436;2023-01-05T02:41:25;18.42;;;3.17;;
29570;SDS011;16814;52.118;11.436;2023-01-05T02:44:02;18.38;;;3.25;;
29570;SDS011;16814;52.118;11.436;2023-01-05T02:46:28;18.10;;;2.90;;
29570;SDS011;16814;52.118;11.436;2023-01-05T02:48:55;20.40;;;3.00;;
29570;SDS011;16814;52.118;11.436;2023-01-05T02:51:23;18.90;;;3.30;;
29570;SDS011;16814;52.118;11.436;2023-01-05T02:53:56;15.75;;;3.10;;
29570;SDS011;16814;52.118;11.436;2023-01-05T02:56:49;18.10;;;3.08;;
29570;SDS011;16814;52.118;11.436;2023-01-05T03:02:16;16.77;;;3.38;;
29570;SDS011;16814;52.118;11.436;2023-01-05T03:04:46;19.92;;;3.30;;
29570;SDS011;16814;52.118;11.436;2023-01-05T03:07:20;19.67;;;3.67;;
29570;SDS011;16814;52.118;11.436;2023-01-05T03:09:50;20.98;;;3.22;;
29570;SDS011;16814;52.118;11.436;2023-01-05T03:12:34;21.55;;;3.72;;
29570;SDS011;16814;52.118;11.436;2023-01-05T03:15:26;18.70;;;3.67;;
29570;SDS011;16814;52.118;11.436;2023-01-05T03:17:56;18.02;;;3.40;;
29570;SDS011;16814;52.118;11.436;2023-01-05T03:20:24;20.95;;;3.90;;
29570;SDS011;16814;52.118;11.436;2023-01-05T03:22:52;22.67;;;3.75;;
29570;SDS011;16814;52.118;11.436;2023-01-05T03:25:39;18.88;;;3.15;;
29570;SDS011;16814;52.118;11.436;2023-01-05T03:28:29;23.05;;;4.07;;
29570;SDS011;16814;52.118;11.436;2023-01-05T03:37:33;17.88;;;3.75;;
29570;SDS011;16814;52.118;11.436;2023-01-05T03:40:05;23.33;;;3.67;;
29570;SDS011;16814;52.118;11.436;2023-01-05T03:42:45;16.48;;;3.35;;
29570;SDS011;16814;52.118;11.436;2023-01-05T03:45:11;16.63;;;3.25;;
29570;SDS011;16814;52.118;11.436;2023-01-05T03:47:39;18.27;;;3.33;;
29570;SDS011;16814;52.118;11.436;2023-01-05T03:50:05;18.17;;;3.60;;
29570;SDS011;16814;52.118;11.436;2023-01-05T03:52:31;21.58;;;3.60;;
29570;SDS011;16814;52.118;11.436;2023-01-05T03:54:56;16.15;;;3.70;;
29570;SDS011;16814;52.118;11.436;2023-01-05T03:57:22;22.67;;;3.83;;
29570;SDS011;16814;52.118;11.436;2023-01-05T03:59:47;21.90;;;3.43;;
29570;SDS011;16814;52.118;11.436;2023-01-05T04:02:13;17.52;;;2.92;;
29570;SDS011;16814;52.118;11.436;2023-01-05T04:04:38;19.50;;;3.70;;
29570;SDS011;16814;52.118;11.436;2023-01-05T04:07:04;21.83;;;3.50;;
29570;SDS011;16814;52.118;11.436;2023-01-05T04:09:31;17.30;;;4.15;;
29570;SDS011;16814;52.118;11.436;2023-01-05T04:11:57;16.55;;;3.42;;
29570;SDS011;16814;52.118;11.436;2023-01-05T04:14:23;25.05;;;4.40;;
29570;SDS011;16814;52.118;11.436;2023-01-05T04:16:49;22.87;;;3.87;;
29570;SDS011;16814;52.118;11.436;2023-01-05T04:19:15;22.27;;;2.78;;
29570;SDS011;16814;52.118;11.436;2023-01-05T04:21:41;22.57;;;3.43;;
29570;SDS011;16814;52.118;11.436;2023-01-05T04:24:08;21.15;;;3.75;;
29570;SDS011;16814;52.118;11.436;2023-01-05T04:26:34;15.57;;;3.20;;
29570;SDS011;16814;52.118;11.436;2023-01-05T04:29:01;17.63;;;3.05;;
29570;SDS011;16814;52.118;11.436;2023-01-05T04:31:28;18.05;;;2.95;;
29570;SDS011;16814;52.118;11.436;2023-01-05T04:33:54;20.63;;;3.80;;
29570;SDS011;16814;52.118;11.436;2023-01-05T04:36:19;18.63;;;3.80;;
29570;SDS011;16814;52.118;11.436;2023-01-05T04:38:45;20.77;;;3.40;;
29570;SDS011;16814;52.118;11.436;2023-01-05T04:41:11;17.60;;;3.43;;
29570;SDS011;16814;52.118;11.436;2023-01-05T04:43:36;17.30;;;3.08;;
29570;SDS011;16814;52.118;11.436;2023-01-05T04:46:02;13.87;;;3.43;;
29570;SDS011;16814;52.118;11.436;2023-01-05T04:48:28;14.23;;;2.90;;
29570;SDS011;16814;52.118;11.436;2023-01-05T04:50:55;21.67;;;3.50;;
29570;SDS011;16814;52.118;11.436;2023-01-05T04:53:21;14.18;;;3.13;;
29570;SDS011;16814;52.118;11.436;2023-01-05T04:55:47;18.30;;;3.53;;
29570;SDS011;16814;52.118;11.436;2023-01-05T04:58:12;21.90;;;4.07;;
29570;SDS011;16814;52.118;11.436;2023-01-05T05:00:38;21.70;;;4.33;;
29570;SDS011;16814;52.118;11.436;2023-01-05T05:03:04;25.65;;;4.28;;
29570;SDS011;16814;52.118;11.436;2023-01-05T05:05:30;19.17;;;4.45;;
29570;SDS011;16814;52.118;11.436;2023-01-05T05:07:55;21.77;;;3.87;;
29570;SDS011;16814;52.118;11.436;2023-01-05T05:10:21;22.33;;;3.90;;
29570;SDS011;16814;52.118;11.436;2023-01-05T05:12:46;18.63;;;3.42;;
29570;SDS011;16814;52.118;11.436;2023-01-05T05:15:12;21.80;;;3.80;;
29570;SDS011;16814;52.118;11.436;2023-01-05T05:17:37;28.77;;;3.50;;
29570;SDS011;16814;52.118;11.436;2023-01-05T05:20:03;18.20;;;3.87;;
29570;SDS011;16814;52.118;11.436;2023-01-05T05:22:29;22.75;;;4.22;;
29570;SDS011;16814;52.118;11.436;2023-01-05T05:24:55;24.35;;;4.18;;
29570;SDS011;16814;52.118;11.436;2023-01-05T05:27:21;18.43;;;3.77;;
29570;SDS011;16814;52.118;11.436;2023-01-05T05:29:47;28.23;;;4.30;;
29570;SDS011;16814;52.118;11.436;2023-01-05T05:32:12;22.35;;;3.83;;
29570;SDS011;16814;52.118;11.436;2023-01-05T05:34:38;20.20;;;3.43;;
29570;SDS011;16814;52.118;11.436;2023-01-05T05:37:03;19.93;;;3.13;;
29570;SDS011;16814;52.118;11.436;2023-01-05T05:39:29;21.98;;;4.15;;
29570;SDS011;16814;52.118;11.436;2023-01-05T05:41:55;27.03;;;4.07;;
29570;SDS011;16814;52.118;11.436;2023-01-05T05:44:20;20.13;;;3.67;;
29570;SDS011;16814;52.118;11.436;2023-01-05T05:46:46;23.25;;;3.78;;
29570;SDS011;16814;52.118;11.436;2023-01-05T05:49:12;23.47;;;4.87;;
29570;SDS011;16814;52.118;11.436;2023-01-05T05:51:38;19.63;;;3.20;;
29570;SDS011;16814;52.118;11.436;2023-01-05T05:54:03;19.90;;;3.65;;
29570;SDS011;16814;52.118;11.436;2023-01-05T05:56:29;22.27;;;3.57;;
29570;SDS011;16814;52.118;11.436;2023-01-05T05:58:54;17.95;;;3.20;;
29570;SDS011;16814;52.118;11.436;2023-01-05T06:01:20;17.60;;;3.80;;
29570;SDS011;16814;52.118;11.436;2023-01-05T06:03:45;21.70;;;3.55;;
29570;SDS011;16814;52.118;11.436;2023-01-05T06:06:14;20.95;;;4.38;;
29570;SDS011;16814;52.118;11.436;2023-01-05T06:08:39;20.97;;;4.07;;
29570;SDS011;16814;52.118;11.436;2023-01-05T06:11:05;22.48;;;3.90;;
29570;SDS011;16814;52.118;11.436;2023-01-05T06:13:32;14.27;;;2.63;;
29570;SDS011;16814;52.118;11.436;2023-01-05T06:15:57;19.40;;;3.60;;
29570;SDS011;16814;52.118;11.436;2023-01-05T06:18:23;16.55;;;2.70;;
29570;SDS011;16814;52.118;11.436;2023-01-05T06:20:48;22.07;;;3.43;;
29570;SDS011;16814;52.118;11.436;2023-01-05T06:23:14;13.65;;;2.80;;
29570;SDS011;16814;52.118;11.436;2023-01-05T06:25:39;20.07;;;2.90;;
29570;SDS011;16814;52.118;11.436;2023-01-05T06:28:05;17.07;;;2.63;;
29570;SDS011;16814;52.118;11.436;2023-01-05T06:30:30;15.27;;;2.60;;
29570;SDS011;16814;52.118;11.436;2023-01-05T06:32:56;13.33;;;2.60;;
29570;SDS011;16814;52.118;11.436;2023-01-05T06:35:21;13.23;;;2.50;;
29570;SDS011;16814;52.118;11.436;2023-01-05T06:37:47;11.60;;;2.43;;
29570;SDS011;16814;52.118;11.436;2023-01-05T06:40:13;14.43;;;2.80;;
29570;SDS011;16814;52.118;11.436;2023-01-05T06:42:39;14.00;;;2.60;;
29570;SDS011;16814;52.118;11.436;2023-01-05T06:45:05;10.40;;;2.50;;
29570;SDS011;16814;52.118;11.436;2023-01-05T06:47:32;12.38;;;2.63;;
29570;SDS011;16814;52.118;11.436;2023-01-05T06:49:58;13.23;;;2.22;;
29570;SDS011;16814;52.118;11.436;2023-01-05T06:52:23;15.20;;;2.63;;
29570;SDS011;16814;52.118;11.436;2023-01-05T06:54:49;13.23;;;2.27;;
29570;SDS011;16814;52.118;11.436;2023-01-05T06:57:15;15.43;;;2.60;;
29570;SDS011;16814;52.118;11.436;2023-01-05T06:59:40;15.93;;;2.65;;
29570;SDS011;16814;52.118;11.436;2023-01-05T07:02:12;15.40;;;2.70;;
29570;SDS011;16814;52.118;11.436;2023-01-05T07:04:39;12.57;;;3.10;;
29570;SDS011;16814;52.118;11.436;2023-01-05T07:07:05;14.63;;;2.53;;
29570;SDS011;16814;52.118;11.436;2023-01-05T07:09:30;14.83;;;2.40;;
29570;SDS011;16814;52.118;11.436;2023-01-05T07:11:56;13.10;;;2.53;;
29570;SDS011;16814;52.118;11.436;2023-01-05T07:14:21;13.07;;;2.43;;
29570;SDS011;16814;52.118;11.436;2023-01-05T07:16:47;14.70;;;2.50;;
29570;SDS011;16814;52.118;11.436;2023-01-05T07:19:13;16.43;;;3.07;;
29570;SDS011;16814;52.118;11.436;2023-01-05T07:21:38;16.33;;;2.83;;
29570;SDS011;16814;52.118;11.436;2023-01-05T07:24:04;13.15;;;3.05;;
29570;SDS011;16814;52.118;11.436;2023-01-05T07:26:29;18.07;;;2.40;;
29570;SDS011;16814;52.118;11.436;2023-01-05T07:28:55;11.70;;;2.40;;
29570;SDS011;16814;52.118;11.436;2023-01-05T07:31:22;11.57;;;2.53;;
29570;SDS011;16814;52.118;11.436;2023-01-05T07:33:48;21.30;;;2.93;;
29570;SDS011;16814;52.118;11.436;2023-01-05T07:36:13;18.05;;;2.80;;
29570;SDS011;16814;52.118;11.436;2023-01-05T07:38:39;19.87;;;3.43;;
29570;SDS011;16814;52.118;11.436;2023-01-05T07:41:04;15.37;;;2.90;;
29570;SDS011;16814;52.118;11.436;2023-01-05T07:43:30;14.35;;;2.20;;
29570;SDS011;16814;52.118;11.436;2023-01-05T07:45:56;15.03;;;2.70;;
29570;SDS011;16814;52.118;11.436;2023-01-05T07:48:27;13.60;;;2.55;;
29570;SDS011;16814;52.118;11.436;2023-01-05T07:50:57;10.63;;;2.17;;
29570;SDS011;16814;52.118;11.436;2023-01-05T07:53:25;7.75;;;1.73;;
29570;SDS011;16814;52.118;11.436;2023-01-05T07:55:55;10.20;;;2.50;;
29570;SDS011;16814;52.118;11.436;2023-01-05T07:58:22;10.80;;;2.30;;
29570;SDS011;16814;52.118;11.436;2023-01-05T08:00:48;13.33;;;2.10;;
29570;SDS011;16814;52.118;11.436;2023-01-05T08:03:14;12.98;;;2.20;;
29570;SDS011;16814;52.118;11.436;2023-01-05T08:05:40;9.27;;;1.70;;
29570;SDS011;16814;52.118;11.436;2023-01-05T08:08:05;8.73;;;2.03;;
29570;SDS011;16814;52.118;11.436;2023-01-05T08:10:31;7.88;;;1.80;;
29570;SDS011;16814;52.118;11.436;2023-01-05T08:13:00;11.43;;;2.30;;
29570;SDS011;16814;52.118;11.436;2023-01-05T08:15:52;7.63;;;1.98;;
29570;SDS011;16814;52.118;11.436;2023-01-05T08:18:18;8.45;;;2.15;;
29570;SDS011;16814;52.118;11.436;2023-01-05T08:20:54;10.68;;;2.10;;
29570;SDS011;16814;52.118;11.436;2023-01-05T08:23:22;11.68;;;2.33;;
29570;SDS011;16814;52.118;11.436;2023-01-05T08:25:49;11.50;;;2.00;;
29570;SDS011;16814;52.118;11.436;2023-01-05T08:28:14;11.83;;;2.63;;
29570;SDS011;16814;52.118;11.436;2023-01-05T08:30:40;15.10;;;2.67;;
29570;SDS011;16814;52.118;11.436;2023-01-05T08:33:06;13.70;;;2.50;;
29570;SDS011;16814;52.118;11.436;2023-01-05T08:35:31;10.85;;;2.28;;
29570;SDS011;16814;52.118;11.436;2023-01-05T08:37:57;11.80;;;2.70;;
29570;SDS011;16814;52.118;11.436;2023-01-05T08:40:22;13.68;;;2.88;;
29570;SDS011;16814;52.118;11.436;2023-01-05T08:42:49;12.77;;;3.00;;
29570;SDS011;16814;52.118;11.436;2023-01-05T08:45:15;16.50;;;2.72;;
29570;SDS011;16814;52.118;11.436;2023-01-05T08:47:41;15.63;;;2.45;;
29570;SDS011;16814;52.118;11.436;2023-01-05T08:50:08;12.23;;;2.28;;
29570;SDS011;16814;52.118;11.436;2023-01-05T08:52:35;16.30;;;2.45;;
29570;SDS011;16814;52.118;11.436;2023-01-05T08:55:02;17.48;;;2.60;;
29570;SDS011;16814;52.118;11.436;2023-01-05T08:57:28;13.13;;;2.65;;
29570;SDS011;16814;52.118;11.436;2023-01-05T08:59:54;15.75;;;2.38;;
29570;SDS011;16814;52.118;11.436;2023-01-05T09:02:20;14.13;;;1.90;;
29570;SDS011;16814;52.118;11.436;2023-01-05T09:04:45;14.95;;;2.58;;
29570;SDS011;16814;52.118;11.436;2023-01-05T09:07:11;11.43;;;2.67;;
29570;SDS011;16814;52.118;11.436;2023-01-05T09:09:37;10.77;;;2.40;;
29570;SDS011;16814;52.118;11.436;2023-01-05T09:12:02;13.60;;;2.40;;
29570;SDS011;16814;52.118;11.436;2023-01-05T09:14:28;10.97;;;2.10;;
29570;SDS011;16814;52.118;11.436;2023-01-05T09:16:54;10.13;;;2.75;;
29570;SDS011;16814;52.118;11.436;2023-01-05T09:19:19;13.63;;;2.23;;
29570;SDS011;16814;52.118;11.436;2023-01-05T09:21:45;15.82;;;2.65;;
29570;SDS011;16814;52.118;11.436;2023-01-05T09:24:10;14.27;;;2.97;;
29570;SDS011;16814;52.118;11.436;2023-01-05T09:26:37;13.23;;;2.55;;
29570;SDS011;16814;52.118;11.436;2023-01-05T09:29:02;12.52;;;3.03;;
29570;SDS011;16814;52.118;11.436;2023-01-05T09:31:28;14.83;;;3.00;;
29570;SDS011;16814;52.118;11.436;2023-01-05T09:33:55;12.97;;;2.60;;
29570;SDS011;16814;52.118;11.436;2023-01-05T09:36:22;8.60;;;2.40;;
29570;SDS011;16814;52.118;11.436;2023-01-05T09:38:48;13.05;;;2.00;;
29570;SDS011;16814;52.118;11.436;2023-01-05T09:41:18;7.82;;;1.80;;
29570;SDS011;16814;52.118;11.436;2023-01-05T09:43:56;11.65;;;2.65;;
29570;SDS011;16814;52.118;11.436;2023-01-05T09:46:29;8.05;;;2.20;;
29570;SDS011;16814;52.118;11.436;2023-01-05T09:49:00;11.07;;;2.28;;
29570;SDS011;16814;52.118;11.436;2023-01-05T09:51:28;10.82;;;2.58;;
29570;SDS011;16814;52.118;11.436;2023-01-05T09:53:55;14.00;;;2.30;;
29570;SDS011;16814;52.118;11.436;2023-01-05T09:56:31;11.35;;;2.17;;
29570;SDS011;16814;52.118;11.436;2023-01-05T09:59:05;9.75;;;2.10;;
29570;SDS011;16814;52.118;11.436;2023-01-05T10:01:36;8.98;;;2.30;;
29570;SDS011;16814;52.118;11.436;2023-01-05T10:04:04;9.93;;;2.20;;
29570;SDS011;16814;52.118;11.436;2023-01-05T10:06:34;10.50;;;2.38;;
29570;SDS011;16814;52.118;11.436;2023-01-05T10:09:04;17.38;;;3.22;;
29570;SDS011;16814;52.118;11.436;2023-01-05T10:14:41;10.75;;;2.38;;
29570;SDS011;16814;52.118;11.436;2023-01-05T10:17:16;12.80;;;2.70;;
29570;SDS011;16814;52.118;11.436;2023-01-05T10:19:44;11.73;;;2.40;;
29570;SDS011;16814;52.118;11.436;2023-01-05T10:25:17;11.10;;;2.25;;
29570;SDS011;16814;52.118;11.436;2023-01-05T10:30:41;9.20;;;2.55;;
29570;SDS011;16814;52.118;11.436;2023-01-05T10:36:18;9.57;;;2.35;;
29570;SDS011;16814;52.118;11.436;2023-01-05T10:39:22;7.43;;;2.35;;
29570;SDS011;16814;52.118;11.436;2023-01-05T10:42:03;2.57;;;0.80;;
29570;SDS011;16814;52.118;11.436;2023-01-05T10:44:46;3.17;;;0.65;;
29570;SDS011;16814;52.118;11.436;2023-01-05T10:47:24;2.05;;;0.77;;
29570;SDS011;16814;52.118;11.436;2023-01-05T10:49:51;3.20;;;0.75;;
29570;SDS011;16814;52.118;11.436;2023-01-05T10:52:19;3.00;;;0.80;;
29570;SDS011;16814;52.118;11.436;2023-01-05T10:54:47;2.40;;;0.70;;
29570;SDS011;16814;52.118;11.436;2023-01-05T10:57:30;7.03;;;0.80;;
29570;SDS011;16814;52.118;11.436;2023-01-05T11:02:33;7.10;;;1.00;;
29570;SDS011;16814;52.118;11.436;2023-01-05T11:05:03;7.40;;;1.17;;
29570;SDS011;16814;52.118;11.436;2023-01-05T11:07:50;3.22;;;0.80;;
29570;SDS011;16814;52.118;11.436;2023-01-05T11:12:59;4.13;;;1.10;;
29570;SDS011;16814;52.118;11.436;2023-01-05T11:15:43;3.43;;;1.27;;
29570;SDS011;16814;52.118;11.436;2023-01-05T11:18:41;4.95;;;1.00;;
29570;SDS011;16814;52.118;11.436;2023-01-05T11:21:19;7.30;;;0.95;;
29570;SDS011;16814;52.118;11.436;2023-01-05T11:23:47;4.65;;;1.17;;
29570;SDS011;16814;52.118;11.436;2023-01-05T11:28:51;5.23;;;1.20;;
29570;SDS011;16814;52.118;11.436;2023-01-05T11:31:21;5.25;;;1.02;;
29570;SDS011;16814;52.118;11.436;2023-01-05T11:33:46;4.70;;;1.42;;
29570;SDS011;16814;52.118;11.436;2023-01-05T11:36:20;6.70;;;1.05;;
29570;SDS011;16814;52.118;11.436;2023-01-05T11:38:49;6.43;;;2.05;;
29570;SDS011;16814;52.118;11.436;2023-01-05T11:41:21;5.47;;;1.30;;
29570;SDS011;16814;52.118;11.436;2023-01-05T11:43:47;7.33;;;1.30;;
29570;SDS011;16814;52.118;11.436;2023-01-05T11:46:13;10.70;;;2.00;;
29570;SDS011;16814;52.118;11.436;2023-01-05T11:48:40;6.38;;;1.40;;
29570;SDS011;16814;52.118;11.436;2023-01-05T11:51:37;9.95;;;1.70;;
29570;SDS011;16814;52.118;11.436;2023-01-05T11:54:05;7.30;;;1.48;;
29570;SDS011;16814;52.118;11.436;2023-01-05T11:56:51;6.25;;;1.27;;
29570;SDS011;16814;52.118;11.436;2023-01-05T11:59:39;7.53;;;1.80;;
29570;SDS011;16814;52.118;11.436;2023-01-05T12:05:12;6.80;;;1.30;;
29570;SDS011;16814;52.118;11.436;2023-01-05T12:07:57;7.53;;;1.67;;
29570;SDS011;16814;52.118;11.436;2023-01-05T12:10:45;8.05;;;1.40;;
29570;SDS011;16814;52.118;11.436;2023-01-05T12:19:02;7.05;;;1.40;;
29570;SDS011;16814;52.118;11.436;2023-01-05T12:21:36;8.27;;;1.40;;
29570;SDS011;16814;52.118;11.436;2023-01-05T12:26:38;5.80;;;1.58;;
29570;SDS011;16814;52.118;11.436;2023-01-05T12:35:02;6.75;;;1.10;;
29570;SDS011;16814;52.118;11.436;2023-01-05T12:41:11;6.63;;;1.10;;
29570;SDS011;16814;52.118;11.436;2023-01-05T12:49:18;4.18;;;1.02;;
29570;SDS011;16814;52.118;11.436;2023-01-05T12:52:01;7.20;;;1.27;;
29570;SDS011;16814;52.118;11.436;2023-01-05T12:57:08;4.53;;;1.20;;
29570;SDS011;16814;52.118;11.436;2023-01-05T12:59:49;8.20;;;1.10;;
29570;SDS011;16814;52.118;11.436;2023-01-05T13:05:00;9.30;;;1.25;;
29570;SDS011;16814;52.118;11.436;2023-01-05T13:10:19;8.27;;;1.30;;
29570;SDS011;16814;52.118;11.436;2023-01-05T13:12:51;6.18;;;1.33;;
29570;SDS011;16814;52.118;11.436;2023-01-05T13:15:27;5.45;;;1.40;;
29570;SDS011;16814;52.118;11.436;2023-01-05T13:17:56;10.93;;;1.67;;
29570;SDS011;16814;52.118;11.436;2023-01-05T13:20:38;9.02;;;1.58;;
29570;SDS011;16814;52.118;11.436;2023-01-05T13:23:13;6.30;;;1.25;;
29570;SDS011;16814;52.118;11.436;2023-01-05T13:25:48;5.60;;;1.08;;
29570;SDS011;16814;52.118;11.436;2023-01-05T13:28:23;11.35;;;1.70;;
29570;SDS011;16814;52.118;11.436;2023-01-05T13:36:15;7.97;;;1.50;;
29570;SDS011;16814;52.118;11.436;2023-01-05T13:42:20;4.50;;;0.90;;
29570;SDS011;16814;52.118;11.436;2023-01-05T13:50:46;7.32;;;1.50;;
29570;SDS011;16814;52.118;11.436;2023-01-05T13:53:23;5.40;;;0.88;;
29570;SDS011;16814;52.118;11.436;2023-01-05T13:56:01;4.25;;;0.90;;
29570;SDS011;16814;52.118;11.436;2023-01-05T13:58:51;7.40;;;1.17;;
29570;SDS011;16814;52.118;11.436;2023-01-05T14:01:41;3.70;;;0.90;;
29570;SDS011;16814;52.118;11.436;2023-01-05T14:04:27;4.95;;;1.08;;
29570;SDS011;16814;52.118;11.436;2023-01-05T14:07:03;6.93;;;1.50;;
29570;SDS011;16814;52.118;11.436;2023-01-05T14:09:39;7.28;;;1.20;;
29570;SDS011;16814;52.118;11.436;2023-01-05T14:20:38;7.10;;;1.65;;
29570;SDS011;16814;52.118;11.436;2023-01-05T14:26:02;6.85;;;1.50;;
29570;SDS011;16814;52.118;11.436;2023-01-05T14:36:41;6.10;;;0.90;;
29570;SDS011;16814;52.118;11.436;2023-01-05T14:41:56;5.60;;;1.10;;
29570;SDS011;16814;52.118;11.436;2023-01-05T14:44:48;7.13;;;1.20;;
29570;SDS011;16814;52.118;11.436;2023-01-05T14:47:16;6.60;;;1.10;;
29570;SDS011;16814;52.118;11.436;2023-01-05T14:49:57;8.60;;;1.15;;
29570;SDS011;16814;52.118;11.436;2023-01-05T14:55:32;3.95;;;0.90;;
29570;SDS011;16814;52.118;11.436;2023-01-05T14:57:59;5.13;;;1.00;;
29570;SDS011;16814;52.118;11.436;2023-01-05T15:00:59;5.15;;;0.70;;
29570;SDS011;16814;52.118;11.436;2023-01-05T15:03:35;4.20;;;0.80;;
29570;SDS011;16814;52.118;11.436;2023-01-05T15:06:12;8.40;;;1.08;;
29570;SDS011;16814;52.118;11.436;2023-01-05T15:20:13;4.88;;;1.00;;
29570;SDS011;16814;52.118;11.436;2023-01-05T15:25:38;7.63;;;1.50;;
29570;SDS011;16814;52.118;11.436;2023-01-05T15:28:29;8.52;;;1.30;;
29570;SDS011;16814;52.118;11.436;2023-01-05T15:36:57;8.95;;;1.20;;
29570;SDS011;16814;52.118;11.436;2023-01-05T15:39:44;7.97;;;1.52;;
29570;SDS011;16814;52.118;11.436;2023-01-05T15:42:16;6.82;;;1.20;;
29570;SDS011;16814;52.118;11.436;2023-01-05T15:44:46;4.93;;;1.07;;
29570;SDS011;16814;52.118;11.436;2023-01-05T15:47:16;5.00;;;1.30;;
29570;SDS011;16814;52.118;11.436;2023-01-05T15:49:42;6.80;;;1.17;;
29570;SDS011;16814;52.118;11.436;2023-01-05T15:52:16;4.60;;;1.23;;
29570;SDS011;16814;52.118;11.436;2023-01-05T15:54:59;7.55;;;1.50;;
29570;SDS011;16814;52.118;11.436;2023-01-05T15:57:28;6.75;;;1.20;;
29570;SDS011;16814;52.118;11.436;2023-01-05T15:59:54;4.55;;;1.52;;
29570;SDS011;16814;52.118;11.436;2023-01-05T16:02:27;8.77;;;1.60;;
29570;SDS011;16814;52.118;11.436;2023-01-05T16:08:04;7.13;;;1.05;;
29570;SDS011;16814;52.118;11.436;2023-01-05T16:10:43;3.70;;;0.93;;
29570;SDS011;16814;52.118;11.436;2023-01-05T16:15:43;4.85;;;1.30;;
29570;SDS011;16814;52.118;11.436;2023-01-05T16:18:13;5.63;;;1.13;;
29570;SDS011;16814;52.118;11.436;2023-01-05T16:20:42;5.55;;;1.20;;
29570;SDS011;16814;52.118;11.436;2023-01-05T16:23:12;3.78;;;1.23;;
29570;SDS011;16814;52.118;11.436;2023-01-05T16:25:55;4.82;;;1.55;;
29570;SDS011;16814;52.118;11.436;2023-01-05T16:28:23;4.82;;;0.93;;
29570;SDS011;16814;52.118;11.436;2023-01-05T16:30:50;3.40;;;1.10;;
29570;SDS011;16814;52.118;11.436;2023-01-05T16:33:27;4.23;;;1.20;;
29570;SDS011;16814;52.118;11.436;2023-01-05T16:38:50;4.20;;;1.30;;
29570;SDS011;16814;52.118;11.436;2023-01-05T16:41:22;6.03;;;1.30;;
29570;SDS011;16814;52.118;11.436;2023-01-05T16:43:53;9.52;;;1.70;;
29570;SDS011;16814;52.118;11.436;2023-01-05T16:46:24;6.07;;;1.30;;
29570;SDS011;16814;52.118;11.436;2023-01-05T16:51:48;9.75;;;1.58;;
29570;SDS011;16814;52.118;11.436;2023-01-05T16:54:19;5.65;;;1.77;;
29570;SDS011;16814;52.118;11.436;2023-01-05T16:56:56;4.25;;;1.30;;
29570;SDS011;16814;52.118;11.436;2023-01-05T16:59:44;6.40;;;1.52;;
29570;SDS011;16814;52.118;11.436;2023-01-05T17:02:30;8.25;;;2.10;;
29570;SDS011;16814;52.118;11.436;2023-01-05T17:05:03;5.60;;;1.48;;
29570;SDS011;16814;52.118;11.436;2023-01-05T17:07:30;8.13;;;1.63;;
29570;SDS011;16814;52.118;11.436;2023-01-05T17:09:56;6.05;;;1.67;;
29570;SDS011;16814;52.118;11.436;2023-01-05T17:12:22;5.20;;;1.40;;
29570;SDS011;16814;52.118;11.436;2023-01-05T17:14:48;8.48;;;1.40;;
29570;SDS011;16814;52.118;11.436;2023-01-05T17:17:14;2.00;;;1.00;;